createdAt,value
2022-10-30T19:36:56.155Z,31.8
2022-10-30T19:42:18.384Z,30.9
2022-10-30T19:47:39.020Z,29.8
2022-10-30T19:53:34.675Z,29.2
2022-10-30T19:58:42.623Z,28.9
2022-10-30T20:03:49.961Z,28.7
2022-10-30T20:09:32.069Z,28.6
2022-10-30T20:14:59.699Z,28.4
2022-10-30T20:20:05.952Z,28.4
2022-10-30T20:25:47.540Z,28.4
2022-10-30T20:31:30.339Z,28.4
2022-10-30T20:37:07.256Z,28.4
2022-10-30T20:48:10.669Z,28.3
2022-10-30T20:53:48.437Z,28.3
2022-10-30T20:59:11.351Z,28.3
2022-10-30T21:04:51.179Z,28.3
2022-10-30T21:10:16.619Z,28.4
2022-10-30T21:15:40.883Z,28.3
2022-10-30T21:21:26.147Z,28.4
2022-10-30T21:27:03.387Z,28.4
2022-10-30T21:32:43.097Z,28.4
2022-10-30T21:38:09.910Z,28.4
2022-10-30T21:43:52.670Z,28.4
2022-10-30T21:49:31.019Z,28.4
2022-10-30T21:55:14.473Z,28.4
2022-10-30T22:00:23.426Z,28.4
2022-10-30T22:05:47.621Z,28.4
2022-10-30T22:10:55.073Z,28.4
2022-10-30T22:16:01.340Z,28.4
2022-10-30T22:21:39.815Z,28.4
2022-10-30T22:27:01.136Z,28.4
2022-10-30T22:32:22.878Z,28.4
2022-10-30T22:38:00.301Z,28.4
2022-10-30T22:43:37.389Z,28.4
2022-10-30T22:48:58.300Z,28.4
2022-10-30T22:54:39.048Z,28.4
2022-10-30T23:00:18.268Z,28.4
2022-10-30T23:05:40.895Z,28.4
2022-10-30T23:11:05.886Z,28.4
2022-10-30T23:16:31.290Z,28.4
2022-10-30T23:21:51.674Z,28.4
2022-10-30T23:27:29.357Z,28.4
2022-10-30T23:33:06.969Z,28.4
2022-10-30T23:38:43.013Z,28.4
